Time;durP1;ratioP1;P1;durP2;ratioP2;P2;SDS_P1;SDS_P2;PMS_P1;PMS_P2;Temp;Humidity;BMP_temperature;BMP_pressure;BME280_temperature;BME280_humidity;BME280_pressure;Samples;Min_cycle;Max_cycle;Signal;HPM_P1;HPM_P2
2023/12/29 00:01:00;;;;;;;3.38;1.42;;;;;;;22.60;40.24;99841.19;2103627;28;20064;-71
2023/12/29 00:02:04;;;;;;;3.42;1.45;;;;;;;22.60;40.36;99843.94;2088962;28;20171;-71
2023/12/29 00:03:05;;;;;;;3.58;1.40;;;;;;;22.58;40.16;99836.13;2079036;28;20037;-71
2023/12/29 00:04:07;;;;;;;4.10;1.60;;;;;;;22.58;40.09;99838.84;2093510;28;20075;-71
2023/12/29 00:05:09;;;;;;;3.25;1.50;;;;;;;22.59;40.13;99836.91;2101963;28;20146;-71
2023/12/29 00:06:11;;;;;;;3.55;1.33;;;;;;;22.58;40.02;99835.34;2092010;28;20084;-70
2023/12/29 00:07:16;;;;;;;2.67;1.40;;;;;;;22.59;39.90;99839.63;2092315;28;20048;-71
2023/12/29 00:08:18;;;;;;;3.50;1.33;;;;;;;22.56;39.94;99841.16;2100619;28;20067;-71
2023/12/29 00:09:20;;;;;;;3.70;1.40;;;;;;;22.57;39.77;99825.53;2098825;28;20037;-72
2023/12/29 00:10:25;;;;;;;3.05;1.48;;;;;;;22.55;39.79;99827.88;2098982;28;20155;-71
2023/12/29 00:11:27;;;;;;;2.85;1.23;;;;;;;22.56;39.74;99823.94;2107198;28;20043;-73
2023/12/29 00:12:28;;;;;;;3.08;1.42;;;;;;;22.54;39.77;99827.09;2098773;28;20068;-71
2023/12/29 00:13:30;;;;;;;3.17;1.50;;;;;;;22.55;39.56;99833.34;2090122;28;20756;-71
2023/12/29 00:14:32;;;;;;;3.47;1.30;;;;;;;22.54;39.55;99826.28;2090054;28;20064;-71
2023/12/29 00:15:34;;;;;;;2.15;1.45;;;;;;;22.52;39.39;99828.63;2097112;28;20033;-72
2023/12/29 00:16:36;;;;;;;3.17;1.42;;;;;;;22.53;39.58;99828.22;2109331;28;20925;-72
2023/12/29 00:17:40;;;;;;;3.40;1.50;;;;;;;22.50;39.49;99841.91;2107000;28;20894;-72
2023/12/29 00:18:44;;;;;;;3.05;1.70;;;;;;;22.52;39.50;99823.13;2116964;27;20031;-72
2023/12/29 00:19:46;;;;;;;3.50;1.35;;;;;;;22.52;39.40;99823.13;2096375;28;20040;-71
2023/12/29 00:20:49;;;;;;;2.42;1.33;;;;;;;22.50;39.37;99820.75;2076938;28;20041;-72
2023/12/29 00:21:54;;;;;;;1.73;1.27;;;;;;;22.49;39.20;99812.94;2091312;27;20212;-73
2023/12/29 00:22:58;;;;;;;2.03;1.25;;;;;;;22.51;39.10;99821.53;2114877;27;20134;-73
2023/12/29 00:24:00;;;;;;;3.50;1.40;;;;;;;22.47;39.11;99813.28;2106441;28;20037;-72
2023/12/29 00:25:05;;;;;;;3.05;1.40;;;;;;;22.48;39.11;99811.34;2090128;28;20103;-73
2023/12/29 00:26:07;;;;;;;2.70;1.27;;;;;;;22.47;39.08;99809.78;2082949;28;20033;-72
2023/12/29 00:27:12;;;;;;;1.90;1.33;;;;;;;22.47;39.08;99801.56;2090311;28;20028;-73
2023/12/29 00:28:15;;;;;;;1.85;1.23;;;;;;;22.47;39.20;99809.78;2097170;28;20037;-72
2023/12/29 00:29:20;;;;;;;3.80;1.67;;;;;;;22.46;39.13;99809.00;2106586;28;20087;-72
2023/12/29 00:30:21;;;;;;;4.03;1.60;;;;;;;22.45;39.21;99801.94;2106717;28;20833;-72
2023/12/29 00:31:23;;;;;;;2.58;1.20;;;;;;;22.46;39.14;99802.72;2090228;28;20045;-72
2023/12/29 00:32:27;;;;;;;2.00;1.20;;;;;;;22.46;39.21;99800.00;2082261;28;20753;-72
2023/12/29 00:33:31;;;;;;;2.95;1.33;;;;;;;22.46;39.32;99802.72;2099254;28;20037;-72
2023/12/29 00:34:34;;;;;;;2.58;1.23;;;;;;;22.46;39.24;99802.72;2107124;28;20162;-73
2023/12/29 00:35:38;;;;;;;3.30;1.27;;;;;;;22.44;39.16;99806.63;2081977;28;21285;-72
2023/12/29 00:36:40;;;;;;;1.98;1.38;;;;;;;22.46;39.19;99797.25;2082922;28;20145;-71
2023/12/29 00:37:41;;;;;;;3.08;1.17;;;;;;;22.46;39.22;99798.03;2090426;28;20045;-72
2023/12/29 00:38:45;;;;;;;1.73;1.08;;;;;;;22.45;39.19;99796.47;2090075;28;20034;-71
2023/12/29 00:39:47;;;;;;;3.53;1.52;;;;;;;22.44;39.16;99803.09;2090403;28;20073;-71
2023/12/29 00:40:52;;;;;;;2.17;1.13;;;;;;;22.45;39.30;99810.16;2098871;28;20037;-70
2023/12/29 00:41:55;;;;;;;1.92;1.10;;;;;;;22.43;39.13;99810.53;2098554;28;20844;-72
2023/12/29 00:42:58;;;;;;;3.40;1.33;;;;;;;22.45;39.21;99804.69;2098860;28;20037;-72
2023/12/29 00:44:04;;;;;;;3.25;1.17;;;;;;;22.45;39.16;99801.94;2098608;28;20099;-71
2023/12/29 00:45:08;;;;;;;2.55;1.23;;;;;;;22.45;39.20;99801.94;2098190;28;20134;-71
2023/12/29 00:46:10;;;;;;;1.73;1.15;;;;;;;22.44;39.33;99801.13;2097529;28;20835;-72
2023/12/29 00:47:14;;;;;;;1.83;1.00;;;;;;;22.43;39.28;99821.47;2098444;28;20886;-71
2023/12/29 00:48:16;;;;;;;2.83;1.42;;;;;;;22.43;39.26;99810.53;2098164;28;20033;-71
2023/12/29 00:49:18;;;;;;;3.30;1.30;;;;;;;22.44;39.29;99812.09;2098348;28;20749;-71
2023/12/29 00:50:20;;;;;;;2.17;1.20;;;;;;;22.44;39.24;99795.66;2081819;28;20038;-71
2023/12/29 00:51:22;;;;;;;3.65;1.17;;;;;;;22.45;39.35;99801.94;2081893;28;20077;-72
2023/12/29 00:52:23;;;;;;;2.50;1.17;;;;;;;22.42;39.31;99798.00;2081967;28;20164;-71
2023/12/29 00:53:25;;;;;;;2.00;1.08;;;;;;;22.43;39.17;99788.63;2089903;28;20052;-71
2023/12/29 00:54:29;;;;;;;1.90;1.48;;;;;;;22.44;39.33;99795.66;2098633;28;20029;-71
2023/12/29 00:55:31;;;;;;;1.38;1.00;;;;;;;22.43;39.22;99787.84;2106693;28;20117;-71
2023/12/29 00:56:34;;;;;;;1.48;1.02;;;;;;;22.43;39.20;99788.63;2098395;28;20033;-71
2023/12/29 00:57:36;;;;;;;2.05;1.55;;;;;;;22.43;39.29;99794.09;2089782;28;20843;-71
2023/12/29 00:58:39;;;;;;;1.52;1.00;;;;;;;22.43;39.30;99788.63;2090591;28;20865;-72
2023/12/29 00:59:43;;;;;;;2.42;1.15;;;;;;;22.42;39.26;99787.06;2089828;28;20040;-72
2023/12/29 01:00:45;;;;;;;2.00;1.00;;;;;;;22.42;39.28;99789.78;2098954;28;20118;-72
2023/12/29 01:01:47;;;;;;;2.17;1.15;;;;;;;22.42;39.18;99784.31;2098625;28;20134;-73
2023/12/29 01:02:53;;;;;;;2.50;1.30;;;;;;;22.42;39.18;99791.75;2090984;28;20763;-73
2023/12/29 01:03:55;;;;;;;1.83;1.10;;;;;;;22.41;39.16;99780.00;2106737;28;20044;-72
2023/12/29 01:04:58;;;;;;;1.73;1.10;;;;;;;22.41;39.32;99774.53;2098203;28;20116;-72
2023/12/29 01:06:00;;;;;;;1.65;1.02;;;;;;;22.41;39.25;99780.00;2090974;28;20120;-73
2023/12/29 01:07:03;;;;;;;2.00;1.08;;;;;;;22.41;39.18;99774.53;2098075;28;20090;-72
2023/12/29 01:08:08;;;;;;;2.53;1.15;;;;;;;22.41;39.22;99780.00;2081366;28;20741;-72
2023/12/29 01:09:12;;;;;;;1.92;1.30;;;;;;;22.40;39.04;99778.41;2091950;28;20059;-72
2023/12/29 01:10:15;;;;;;;2.35;1.20;;;;;;;22.41;39.26;99784.69;2098295;28;20080;-72
2023/12/29 01:11:16;;;;;;;2.25;1.10;;;;;;;22.40;39.16;99772.16;2081437;28;20038;-72
2023/12/29 01:12:18;;;;;;;1.85;1.10;;;;;;;22.40;39.18;99763.94;2081886;28;20108;-71
2023/12/29 01:13:23;;;;;;;3.33;1.10;;;;;;;22.40;39.17;99759.25;2089923;28;20869;-71
2023/12/29 01:14:27;;;;;;;2.70;1.25;;;;;;;22.40;39.22;99763.94;2100171;28;20056;-71
2023/12/29 01:15:29;;;;;;;1.92;1.20;;;;;;;22.40;39.15;99761.97;2098087;28;20025;-71
2023/12/29 01:16:30;;;;;;;2.75;1.58;;;;;;;22.40;39.23;99766.69;2098049;28;20044;-71
2023/12/29 01:17:33;;;;;;;1.95;1.33;;;;;;;22.39;39.13;99754.16;2098390;28;20107;-70
2023/12/29 01:18:35;;;;;;;2.38;1.10;;;;;;;22.39;39.13;99756.91;2098325;28;20114;-70
2023/12/29 01:19:37;;;;;;;2.33;1.08;;;;;;;22.39;39.14;99760.41;2089894;28;20030;-71
2023/12/29 01:20:41;;;;;;;2.58;1.23;;;;;;;22.39;39.23;99751.41;2090721;28;20163;-71
2023/12/29 01:21:42;;;;;;;1.52;1.02;;;;;;;22.37;39.20;99762.72;2082320;28;20762;-70
2023/12/29 01:22:43;;;;;;;3.15;1.40;;;;;;;22.39;39.20;99749.47;2098340;28;20155;-71
2023/12/29 01:23:45;;;;;;;2.50;1.30;;;;;;;22.38;39.33;99753.38;2106561;28;20145;-71
2023/12/29 01:24:47;;;;;;;2.55;1.20;;;;;;;22.38;39.23;99764.31;2082122;28;20674;-71
2023/12/29 01:25:51;;;;;;;2.25;1.20;;;;;;;22.38;39.24;99747.09;2091468;28;20116;-70
2023/12/29 01:26:53;;;;;;;3.22;1.10;;;;;;;22.37;39.25;99740.81;2091694;28;20037;-70
2023/12/29 01:27:55;;;;;;;1.63;1.20;;;;;;;22.37;39.35;99738.09;2091591;28;20752;-71
2023/12/29 01:28:57;;;;;;;2.70;1.27;;;;;;;22.37;39.21;99738.09;2099627;28;20037;-71
2023/12/29 01:30:00;;;;;;;1.77;1.00;;;;;;;22.37;39.13;99748.25;2090910;28;20052;-71
2023/12/29 01:31:02;;;;;;;1.73;1.10;;;;;;;22.37;39.32;99740.03;2091805;28;20041;-71
2023/12/29 01:32:07;;;;;;;2.33;1.05;;;;;;;22.37;39.36;99732.59;2082727;28;20871;-71
2023/12/29 01:33:09;;;;;;;1.92;1.10;;;;;;;22.37;39.37;99729.88;2084875;28;20037;-71
2023/12/29 01:34:10;;;;;;;1.77;1.02;;;;;;;22.37;39.28;99735.34;2091084;28;20060;-71
2023/12/29 01:35:13;;;;;;;1.50;1.10;;;;;;;22.36;39.32;99731.03;2083424;28;20073;-71
2023/12/29 01:36:18;;;;;;;1.15;0.90;;;;;;;22.38;39.40;99727.91;2092400;28;20939;-71
2023/12/29 01:37:19;;;;;;;1.50;1.02;;;;;;;22.36;39.32;99733.00;2100382;28;20209;-71
2023/12/29 01:38:21;;;;;;;1.98;1.20;;;;;;;22.35;39.42;99720.44;2108016;28;20062;-70
2023/12/29 01:39:25;;;;;;;2.05;1.10;;;;;;;22.35;39.33;99721.25;2099576;28;20850;-72
2023/12/29 01:40:26;;;;;;;1.67;0.90;;;;;;;22.36;39.34;99720.09;2083186;28;20073;-71
2023/12/29 01:41:28;;;;;;;1.88;1.00;;;;;;;22.36;39.42;99711.09;2091407;28;20041;-72
2023/12/29 01:42:30;;;;;;;1.88;1.00;;;;;;;22.34;39.29;99714.19;2099837;28;20107;-71
2023/12/29 01:43:34;;;;;;;1.55;0.98;;;;;;;22.36;39.26;99708.34;2091609;28;20180;-71
2023/12/29 01:44:36;;;;;;;1.88;1.00;;;;;;;22.35;39.34;99698.53;2075342;28;20045;-72
2023/12/29 01:45:37;;;;;;;1.80;1.10;;;;;;;22.34;39.36;99692.28;2083499;28;20034;-72
2023/12/29 01:46:39;;;;;;;1.92;1.25;;;;;;;22.35;39.42;99699.34;2091476;28;20078;-71
2023/12/29 01:47:42;;;;;;;1.50;1.00;;;;;;;22.35;39.34;99701.28;2083608;28;20038;-71
2023/12/29 01:48:43;;;;;;;1.38;0.90;;;;;;;22.35;39.36;99688.41;2091448;28;20160;-71
2023/12/29 01:49:46;;;;;;;1.63;1.20;;;;;;;22.35;39.44;99693.88;2091167;28;20823;-71
2023/12/29 01:50:51;;;;;;;2.25;1.20;;;;;;;22.34;39.38;99691.50;2084073;28;20037;-73
2023/12/29 01:51:56;;;;;;;1.90;1.17;;;;;;;22.34;39.52;99692.28;2083887;28;20119;-75
2023/12/29 01:52:59;;;;;;;1.33;1.10;;;;;;;22.33;39.37;99685.25;2092739;28;20188;-74
2023/12/29 01:54:02;;;;;;;1.85;1.00;;;;;;;22.34;39.45;99694.25;2099937;28;20036;-74
2023/12/29 01:55:07;;;;;;;1.92;1.13;;;;;;;22.35;39.46;99687.59;2083173;28;20040;-74
2023/12/29 01:56:09;;;;;;;2.72;1.20;;;;;;;22.34;39.47;99707.94;2085128;28;20152;-72
2023/12/29 01:57:12;;;;;;;2.95;1.00;;;;;;;22.34;39.45;99686.81;2098862;28;20045;-72
2023/12/29 01:58:16;;;;;;;2.17;1.00;;;;;;;22.34;39.42;99692.28;2093949;28;20120;-72
2023/12/29 01:59:21;;;;;;;1.50;1.10;;;;;;;22.34;39.42;99686.03;2090933;28;20041;-71
2023/12/29 02:00:25;;;;;;;1.73;1.10;;;;;;;22.33;39.47;99696.19;2091862;28;20764;-71
2023/12/29 02:01:27;;;;;;;2.28;1.02;;;;;;;22.33;39.47;99690.72;2099792;28;20056;-71
2023/12/29 02:02:33;;;;;;;1.83;1.10;;;;;;;22.33;39.47;99690.72;2099452;28;20132;-72
2023/12/29 02:03:36;;;;;;;2.50;1.05;;;;;;;22.34;39.51;99684.06;2083534;28;20038;-73
2023/12/29 02:04:38;;;;;;;2.72;1.23;;;;;;;22.33;39.42;99685.25;2083481;28;20113;-73
2023/12/29 02:05:42;;;;;;;1.98;0.80;;;;;;;22.33;39.40;99690.72;2091243;28;20029;-73
2023/12/29 02:06:45;;;;;;;2.55;1.17;;;;;;;22.32;39.38;99689.16;2091863;28;20041;-73
2023/12/29 02:07:47;;;;;;;2.40;1.17;;;;;;;22.32;39.24;99682.88;2091303;28;20092;-75
2023/12/29 02:08:48;;;;;;;1.92;1.00;;;;;;;22.32;39.41;99682.88;2091373;28;20166;-74
2023/12/29 02:09:51;;;;;;;1.08;0.90;;;;;;;22.33;39.18;99684.47;2082882;28;20042;-74
2023/12/29 02:10:53;;;;;;;1.80;1.00;;;;;;;22.31;39.34;99675.81;2074825;28;20038;-74
2023/12/29 02:11:55;;;;;;;2.20;1.00;;;;;;;22.30;39.24;99686.00;2067314;28;20217;-75
2023/12/29 02:12:59;;;;;;;2.53;1.15;;;;;;;22.28;39.22;99669.16;2091340;28;20026;-75
2023/12/29 02:14:00;;;;;;;2.28;1.05;;;;;;;22.25;39.27;99661.69;2099367;28;20033;-75
2023/12/29 02:15:02;;;;;;;1.58;0.90;;;;;;;22.23;39.26;99666.78;2099411;28;20179;-74
2023/12/29 02:16:40;;;;;;;1.95;1.00;;;;;;;22.19;39.13;99658.53;2090914;28;20037;-74
2023/12/29 02:17:59;;;;;;;2.40;1.10;;;;;;;22.17;38.98;99651.88;2062765;28;20846;-74
2023/12/29 02:19:10;;;;;;;1.88;1.23;;;;;;;22.15;39.04;99652.19;2097737;28;20151;-74
2023/12/29 02:20:12;;;;;;;1.80;1.13;;;;;;;22.12;39.02;99657.66;2098623;28;20040;-74
2023/12/29 02:21:15;;;;;;;1.92;0.93;;;;;;;22.10;39.07;99659.97;2083142;28;20037;-74
2023/12/29 02:22:17;;;;;;;1.38;1.10;;;;;;;22.05;38.85;99652.91;2082730;28;20045;-74
2023/12/29 02:23:21;;;;;;;1.98;1.20;;;;;;;22.06;38.96;99659.16;2099418;28;20029;-74
2023/12/29 02:24:24;;;;;;;3.08;1.30;;;;;;;22.02;38.95;99652.88;2099307;28;20033;-74
2023/12/29 02:25:27;;;;;;;2.47;1.40;;;;;;;22.01;38.80;99656.78;2082780;28;20084;-74
2023/12/29 02:26:33;;;;;;;1.70;1.20;;;;;;;21.97;38.89;99654.00;2075145;28;20136;-74
2023/12/29 02:27:51;;;;;;;1.92;1.08;;;;;;;21.94;38.94;99657.47;2091788;28;20156;-74
2023/12/29 02:29:02;;;;;;;4.28;1.33;;;;;;;21.91;38.91;99653.56;2093419;28;20034;-74
2023/12/29 02:30:12;;;;;;;1.35;0.95;;;;;;;21.89;38.94;99664.09;2084284;28;20037;-75
2023/12/29 02:31:19;;;;;;;3.22;1.48;;;;;;;21.86;38.93;99667.59;2085458;28;20955;-74
2023/12/29 02:32:23;;;;;;;1.25;1.10;;;;;;;21.85;38.92;99665.25;2092217;28;20111;-74
2023/12/29 02:33:26;;;;;;;2.45;1.08;;;;;;;21.82;38.83;99666.00;2090931;28;20026;-75
2023/12/29 02:34:29;;;;;;;1.70;1.08;;;;;;;21.80;38.93;99674.56;2083016;28;20849;-75
2023/12/29 02:35:35;;;;;;;1.73;1.15;;;;;;;21.78;38.91;99674.13;2082864;28;20036;-75
2023/12/29 02:36:42;;;;;;;2.45;1.17;;;;;;;21.76;39.03;99671.00;2083477;28;20868;-74
2023/12/29 02:37:44;;;;;;;1.92;1.20;;;;;;;21.74;38.92;99676.84;2075234;28;20120;-75
2023/12/29 02:38:46;;;;;;;2.85;1.30;;;;;;;21.70;38.91;99658.84;2082930;28;20815;-75
2023/12/29 02:39:48;;;;;;;2.17;1.23;;;;;;;21.70;38.87;99656.88;2082358;28;20045;-74
2023/12/29 02:40:49;;;;;;;2.30;1.23;;;;;;;21.69;38.83;99654.50;2074574;28;20042;-75
2023/12/29 02:41:51;;;;;;;3.05;1.15;;;;;;;21.67;38.87;99649.41;2074786;28;20038;-75
2023/12/29 02:42:53;;;;;;;1.60;1.10;;;;;;;21.66;38.92;99625.19;2083150;28;20029;-75
2023/12/29 02:43:59;;;;;;;3.08;1.33;;;;;;;21.64;38.88;99622.03;2090629;28;20040;-75
2023/12/29 02:45:01;;;;;;;1.95;1.10;;;;;;;21.62;38.86;99610.66;2099487;28;20028;-75
2023/12/29 02:46:02;;;;;;;1.30;1.02;;;;;;;21.60;38.88;99616.53;2098937;28;20126;-75
2023/12/29 02:47:05;;;;;;;2.67;1.30;;;;;;;21.59;39.00;99641.50;2090861;28;21150;-75
2023/12/29 02:48:08;;;;;;;2.55;1.00;;;;;;;21.57;38.93;99630.19;2091212;28;20029;-75
2023/12/29 02:49:12;;;;;;;2.47;1.13;;;;;;;21.55;38.94;99635.22;2090168;28;20033;-76
2023/12/29 02:50:14;;;;;;;1.52;1.20;;;;;;;21.54;38.85;99622.72;2083172;28;20046;-76
2023/12/29 02:51:19;;;;;;;2.45;1.20;;;;;;;21.52;38.93;99626.59;2091492;28;20030;-77
2023/12/29 02:52:20;;;;;;;2.42;1.08;;;;;;;21.49;38.98;99632.03;2082925;28;20030;-76
2023/12/29 02:53:22;;;;;;;2.15;1.10;;;;;;;21.48;38.92;99636.72;2082797;28;20045;-76
2023/12/29 02:54:24;;;;;;;1.90;1.10;;;;;;;21.47;38.94;99618.75;2082453;28;20228;-76
2023/12/29 02:55:25;;;;;;;1.70;1.10;;;;;;;21.47;39.09;99620.69;2074547;28;20034;-76
2023/12/29 02:56:27;;;;;;;2.22;1.23;;;;;;;21.45;38.92;99621.06;2082764;28;20897;-76
2023/12/29 02:57:31;;;;;;;2.03;1.02;;;;;;;21.45;38.94;99615.59;2098966;28;20060;-76
2023/12/29 02:58:33;;;;;;;2.65;1.20;;;;;;;21.44;38.95;99616.75;2082888;28;20034;-76
2023/12/29 02:59:34;;;;;;;2.60;1.10;;;;;;;21.43;39.11;99623.38;2091010;28;20095;-76
2023/12/29 03:00:37;;;;;;;3.00;1.10;;;;;;;21.42;38.99;99621.81;2098693;28;20862;-76
2023/12/29 03:01:38;;;;;;;1.83;1.20;;;;;;;21.40;39.04;99624.13;2090683;28;20036;-76
2023/12/29 03:02:39;;;;;;;2.13;1.13;;;;;;;21.40;39.14;99635.06;2098871;28;20979;-76
2023/12/29 03:03:41;;;;;;;4.15;2.38;;;;;;;21.40;38.98;99624.13;2099513;28;20869;-76
2023/12/29 03:04:44;;;;;;;2.70;1.20;;;;;;;21.38;39.15;99631.94;2090140;28;20760;-75
2023/12/29 03:05:45;;;;;;;2.30;1.13;;;;;;;21.37;39.02;99630.34;2090335;28;20038;-75
2023/12/29 03:06:47;;;;;;;3.70;1.50;;;;;;;21.37;39.07;99624.09;2098667;28;20033;-75
2023/12/29 03:07:49;;;;;;;2.03;1.15;;;;;;;21.35;39.12;99616.28;2090887;28;20037;-75
2023/12/29 03:08:50;;;;;;;1.77;1.10;;;;;;;21.34;39.15;99620.13;2082063;28;20046;-76
2023/12/29 03:09:52;;;;;;;2.00;1.17;;;;;;;21.34;39.17;99625.59;2090566;28;20872;-75
2023/12/29 03:10:54;;;;;;;2.35;1.23;;;;;;;21.32;39.22;99621.69;2090848;28;20036;-75
2023/12/29 03:11:55;;;;;;;2.95;1.65;;;;;;;21.31;39.17;99620.84;2090784;28;20040;-76
2023/12/29 03:12:57;;;;;;;1.50;1.17;;;;;;;21.30;39.13;99622.81;2082555;28;20042;-76
2023/12/29 03:13:59;;;;;;;1.73;1.15;;;;;;;21.29;39.13;99618.50;2082792;28;20864;-76
2023/12/29 03:15:00;;;;;;;1.67;1.00;;;;;;;21.28;39.20;99616.16;2090604;28;20900;-76
2023/12/29 03:16:02;;;;;;;3.33;1.55;;;;;;;21.28;39.23;99605.22;2099121;28;20847;-75
2023/12/29 03:17:06;;;;;;;3.17;1.10;;;;;;;21.28;39.07;99616.16;2094580;28;20055;-76
2023/12/29 03:18:10;;;;;;;1.45;0.93;;;;;;;21.27;39.23;99603.63;2099544;28;20041;-76
2023/12/29 03:19:13;;;;;;;2.22;1.38;;;;;;;21.25;39.26;99589.56;2090491;28;20047;-76
2023/12/29 03:20:17;;;;;;;2.25;1.10;;;;;;;21.26;39.33;99602.06;2091418;28;20742;-76
2023/12/29 03:21:19;;;;;;;1.20;1.08;;;;;;;21.25;39.40;99605.97;2098782;28;20097;-76
2023/12/29 03:22:21;;;;;;;2.22;1.10;;;;;;;21.22;39.33;99606.72;2098936;28;20076;-76
2023/12/29 03:23:23;;;;;;;2.28;1.20;;;;;;;21.22;39.26;99607.50;2090262;28;20063;-75
2023/12/29 03:24:29;;;;;;;1.60;1.00;;;;;;;21.22;39.29;99601.25;2084023;28;20041;-76
2023/12/29 03:25:30;;;;;;;1.58;1.10;;;;;;;21.20;39.32;99598.09;2099095;28;20760;-76
2023/12/29 03:26:32;;;;;;;2.95;1.00;;;;;;;21.20;39.30;99603.56;2091162;28;20029;-76
2023/12/29 03:27:33;;;;;;;2.08;1.00;;;;;;;21.19;39.42;99600.06;2082138;28;20077;-76
2023/12/29 03:28:36;;;;;;;4.05;1.30;;;;;;;21.17;39.27;99605.09;2090790;28;20125;-76
2023/12/29 03:29:37;;;;;;;1.25;1.02;;;;;;;21.16;39.39;99594.53;2090409;28;20037;-75
2023/12/29 03:30:39;;;;;;;3.05;1.40;;;;;;;21.16;39.36;99591.81;2107483;28;20028;-75
2023/12/29 03:31:41;;;;;;;2.28;1.00;;;;;;;21.14;39.29;99594.13;2090454;28;20088;-77
2023/12/29 03:32:43;;;;;;;1.65;1.17;;;;;;;21.14;39.39;99588.66;2090984;28;20033;-76
2023/12/29 03:33:44;;;;;;;1.55;1.10;;;;;;;21.12;39.40;99590.97;2099205;28;20032;-77
2023/12/29 03:34:47;;;;;;;2.00;1.30;;;;;;;21.12;39.37;99585.50;2099366;28;20033;-76
2023/12/29 03:35:48;;;;;;;3.20;1.02;;;;;;;21.11;39.33;99578.47;2098676;28;20044;-76
2023/12/29 03:36:49;;;;;;;3.15;1.20;;;;;;;21.10;39.36;99585.88;2082599;28;20860;-75
2023/12/29 03:37:51;;;;;;;1.45;1.10;;;;;;;21.08;39.45;99593.66;2090755;28;20171;-75
2023/12/29 03:38:55;;;;;;;4.22;1.13;;;;;;;21.09;39.42;99587.06;2090596;28;20191;-76
2023/12/29 03:39:58;;;;;;;1.27;1.00;;;;;;;21.09;39.47;99592.53;2091130;28;20848;-75
2023/12/29 03:40:59;;;;;;;1.85;1.20;;;;;;;21.08;39.37;99573.75;2090568;28;20118;-75
2023/12/29 03:42:02;;;;;;;2.22;1.20;;;;;;;21.09;39.52;99592.53;2098889;28;20036;-75
2023/12/29 03:43:04;;;;;;;2.58;1.08;;;;;;;21.09;39.56;99580.78;2107336;28;20114;-76
2023/12/29 03:44:09;;;;;;;2.47;1.15;;;;;;;21.08;39.50;99571.00;2090497;28;20144;-75
2023/12/29 03:45:11;;;;;;;2.10;1.33;;;;;;;21.06;39.52;99583.13;2098872;28;20033;-76
2023/12/29 03:46:21;;;;;;;2.58;1.30;;;;;;;21.05;39.51;99576.06;2090461;28;20056;-76
2023/12/29 03:47:22;;;;;;;1.48;1.00;;;;;;;21.05;39.35;99576.06;2091977;28;21164;-75
2023/12/29 03:48:24;;;;;;;1.52;1.08;;;;;;;21.05;39.57;99578.00;2090610;28;20029;-75
2023/12/29 03:49:26;;;;;;;3.30;1.20;;;;;;;21.04;39.46;99571.75;2098306;28;20043;-77
2023/12/29 03:50:28;;;;;;;3.65;1.20;;;;;;;21.04;39.42;99581.91;2076162;28;20336;-76
2023/12/29 03:51:29;;;;;;;2.20;0.98;;;;;;;21.02;39.52;99571.34;2089549;28;20029;-75
2023/12/29 03:52:31;;;;;;;3.00;1.20;;;;;;;21.02;39.57;99574.06;2105746;28;20043;-75
2023/12/29 03:53:33;;;;;;;2.80;1.20;;;;;;;21.02;39.48;99571.34;2106121;28;20075;-76
2023/12/29 03:54:35;;;;;;;2.63;1.00;;;;;;;21.02;39.55;99565.88;2089064;28;20029;-75
2023/12/29 03:55:39;;;;;;;3.72;1.60;;;;;;;21.01;39.58;99566.25;2090045;28;20029;-76
2023/12/29 03:56:42;;;;;;;1.52;1.13;;;;;;;21.00;39.61;99562.75;2089001;28;20037;-75
2023/12/29 03:57:43;;;;;;;2.25;1.23;;;;;;;21.00;39.64;99562.75;2097982;28;20784;-75
2023/12/29 03:58:45;;;;;;;1.55;1.00;;;;;;;20.99;39.61;99569.34;2105683;28;20082;-76
2023/12/29 03:59:47;;;;;;;3.58;1.23;;;;;;;20.99;39.58;99563.88;2089494;28;20040;-76
2023/12/29 04:00:49;;;;;;;2.55;1.48;;;;;;;20.98;39.57;99570.50;2089437;28;20049;-76
2023/12/29 04:01:51;;;;;;;2.90;1.10;;;;;;;20.97;39.62;99568.94;2089558;28;20861;-75
2023/12/29 04:02:53;;;;;;;2.47;1.45;;;;;;;20.97;39.65;99552.56;2089439;28;20060;-76
2023/12/29 04:03:56;;;;;;;1.92;1.30;;;;;;;20.97;39.57;99563.50;2105788;28;20813;-75
2023/12/29 04:04:57;;;;;;;1.00;0.90;;;;;;;20.97;39.58;99563.50;2105575;28;20032;-76
2023/12/29 04:05:59;;;;;;;2.42;1.30;;;;;;;20.96;39.63;99558.38;2097606;28;20037;-76
2023/12/29 04:07:01;;;;;;;3.20;1.20;;;;;;;20.96;39.64;99556.44;2105885;28;20878;-75
2023/12/29 04:08:03;;;;;;;2.95;1.10;;;;;;;20.95;39.60;99559.53;2089021;28;20033;-76
2023/12/29 04:09:05;;;;;;;2.20;1.17;;;;;;;20.95;39.64;99565.78;2089630;28;20136;-76
2023/12/29 04:10:10;;;;;;;2.53;1.02;;;;;;;20.93;39.65;99562.66;2105567;28;20036;-76
2023/12/29 04:11:11;;;;;;;3.33;0.93;;;;;;;20.92;39.57;99561.06;2081297;28;20048;-76
2023/12/29 04:12:13;;;;;;;2.90;1.38;;;;;;;20.92;39.66;99550.16;2072614;28;20034;-76
2023/12/29 04:13:14;;;;;;;1.52;1.08;;;;;;;20.91;39.59;99559.50;2097421;28;20037;-76
2023/12/29 04:14:17;;;;;;;2.20;1.10;;;;;;;20.92;39.68;99561.06;2114202;28;20166;-75
2023/12/29 04:15:19;;;;;;;1.70;1.38;;;;;;;20.91;39.77;99556.78;2097101;28;20081;-74
2023/12/29 04:16:23;;;;;;;2.75;1.02;;;;;;;20.90;39.77;99555.22;2089760;28;20029;-75
2023/12/29 04:17:25;;;;;;;2.75;1.10;;;;;;;20.89;39.76;99542.69;2097015;28;20039;-74
2023/12/29 04:18:28;;;;;;;2.05;1.20;;;;;;;20.89;39.69;99539.97;2097019;28;20154;-74
2023/12/29 04:19:30;;;;;;;2.08;1.05;;;;;;;20.88;39.76;99538.41;2097446;28;20029;-74
2023/12/29 04:20:31;;;;;;;1.98;1.20;;;;;;;20.88;39.72;99541.13;2080987;28;20038;-74
2023/12/29 04:21:33;;;;;;;3.00;1.10;;;;;;;20.87;39.72;99539.56;2089000;28;20105;-75
2023/12/29 04:22:38;;;;;;;2.15;1.17;;;;;;;20.86;39.74;99546.16;2105759;28;20157;-75
2023/12/29 04:23:41;;;;;;;2.50;1.15;;;;;;;20.85;39.71;99543.81;2105854;28;20868;-75
2023/12/29 04:24:45;;;;;;;2.85;1.20;;;;;;;20.84;39.77;99534.84;2105844;28;20802;-75
2023/12/29 04:25:47;;;;;;;3.00;1.17;;;;;;;20.83;39.84;99530.53;2097687;28;20126;-75
2023/12/29 04:26:48;;;;;;;2.33;1.10;;;;;;;20.83;39.83;99531.31;2089359;28;20065;-75
2023/12/29 04:27:52;;;;;;;2.70;1.20;;;;;;;20.83;39.84;99535.97;2080848;28;20156;-74
2023/12/29 04:28:55;;;;;;;2.53;1.20;;;;;;;20.83;39.83;99525.06;2081501;28;20156;-74
2023/12/29 04:29:57;;;;;;;2.67;1.10;;;;;;;20.82;39.73;99523.50;2081132;28;20046;-74
2023/12/29 04:30:59;;;;;;;4.30;1.30;;;;;;;20.81;39.82;99513.72;2080809;28;20041;-74
2023/12/29 04:32:01;;;;;;;1.77;1.20;;;;;;;20.81;39.77;99521.94;2072864;28;20034;-74
2023/12/29 04:33:02;;;;;;;2.42;1.33;;;;;;;20.79;39.78;99518.78;2081086;28;20233;-75
2023/12/29 04:34:06;;;;;;;1.58;1.02;;;;;;;20.78;39.78;99512.53;2089495;28;20022;-74
2023/12/29 04:35:12;;;;;;;2.20;1.10;;;;;;;20.76;39.80;99520.28;2089739;28;20756;-74
2023/12/29 04:36:16;;;;;;;1.85;1.13;;;;;;;20.77;39.78;99502.75;2097771;28;20040;-73
2023/12/29 04:37:20;;;;;;;2.55;1.48;;;;;;;20.76;39.77;99497.66;2098373;28;20048;-73
2023/12/29 04:38:22;;;;;;;1.70;1.10;;;;;;;20.75;39.67;99496.88;2088660;28;20115;-73
2023/12/29 04:39:24;;;;;;;2.22;1.20;;;;;;;20.75;39.89;99499.63;2080783;28;20034;-74
2023/12/29 04:40:27;;;;;;;2.58;1.08;;;;;;;20.75;39.88;99496.09;2080613;28;20128;-74
2023/12/29 04:41:29;;;;;;;1.98;1.10;;;;;;;20.76;39.81;99497.66;2089465;28;20734;-74
2023/12/29 04:42:30;;;;;;;1.60;1.17;;;;;;;20.76;39.97;99494.94;2088711;28;20128;-74
2023/12/29 04:43:32;;;;;;;4.93;1.48;;;;;;;20.76;40.00;99497.66;2088999;28;20087;-74
2023/12/29 04:44:36;;;;;;;2.05;0.90;;;;;;;20.75;39.85;99499.63;2080639;28;20038;-75
2023/12/29 04:45:37;;;;;;;2.58;1.30;;;;;;;20.75;39.95;99501.56;2081153;28;20124;-75
2023/12/29 04:46:39;;;;;;;1.90;1.15;;;;;;;20.75;40.06;99507.03;2072714;28;20121;-75
2023/12/29 04:47:40;;;;;;;2.72;1.10;;;;;;;20.75;39.93;99512.50;2089110;28;20037;-75
2023/12/29 04:48:42;;;;;;;2.85;1.20;;;;;;;20.75;39.98;99501.56;2105498;28;20048;-75
2023/12/29 04:49:44;;;;;;;1.75;1.15;;;;;;;20.74;39.97;99506.25;2097649;28;21522;-75
2023/12/29 04:50:49;;;;;;;2.22;1.10;;;;;;;20.74;39.98;99499.97;2097479;28;20866;-73
2023/12/29 04:51:52;;;;;;;1.70;1.10;;;;;;;20.74;40.02;99495.31;2089633;28;20036;-74
2023/12/29 04:52:54;;;;;;;3.40;1.25;;;;;;;20.74;40.06;99486.31;2089111;28;20033;-75
2023/12/29 04:53:55;;;;;;;2.58;1.05;;;;;;;20.74;40.03;99478.13;2088829;28;20033;-74
2023/12/29 04:54:56;;;;;;;2.50;1.10;;;;;;;20.74;40.02;99495.31;2080858;28;20073;-74
2023/12/29 04:55:59;;;;;;;1.77;1.10;;;;;;;20.74;40.05;99494.50;2097275;28;20033;-76
2023/12/29 04:57:01;;;;;;;2.28;1.33;;;;;;;20.75;40.02;99490.63;2097169;28;20091;-77